createdAt,value
2022-10-13T04:15:28.023Z,14.23
2022-10-13T04:17:54.495Z,12.00
2022-10-13T04:20:20.893Z,11.30
2022-10-13T04:22:50.206Z,14.30
2022-10-13T04:25:16.937Z,22.90
2022-10-13T04:27:43.611Z,15.68
2022-10-13T04:30:22.328Z,21.05
2022-10-13T04:32:56.235Z,29.02
2022-10-13T04:35:32.422Z,17.33
2022-10-13T04:37:59.323Z,12.52
2022-10-13T04:40:27.871Z,13.73
2022-10-13T04:42:58.403Z,14.13
2022-10-13T04:45:24.888Z,16.15
2022-10-13T04:47:51.392Z,16.10
2022-10-13T04:50:21.653Z,13.40
2022-10-13T04:52:59.097Z,12.30
2022-10-13T04:55:25.578Z,11.38
2022-10-13T04:57:52.067Z,12.57
2022-10-13T05:00:24.126Z,10.32
2022-10-13T05:02:50.714Z,10.48
2022-10-13T05:05:29.582Z,12.38
2022-10-13T05:07:56.038Z,11.32
2022-10-13T05:10:22.451Z,10.60
2022-10-13T05:12:48.883Z,9.77
2022-10-13T05:15:15.367Z,10.73
2022-10-13T05:17:43.067Z,11.50
2022-10-13T05:20:20.732Z,11.00
2022-10-13T05:22:47.628Z,9.60
2022-10-13T05:25:16.359Z,10.57
2022-10-13T05:27:42.921Z,10.65
2022-10-13T05:30:10.011Z,10.73
2022-10-13T05:32:36.535Z,11.45
2022-10-13T05:35:03.436Z,12.40
2022-10-13T05:37:30.022Z,11.27
2022-10-13T05:39:57.569Z,12.00
2022-10-13T05:42:24.077Z,11.00
2022-10-13T05:44:52.627Z,10.88
2022-10-13T05:47:19.123Z,11.93
2022-10-13T05:49:45.577Z,11.45
2022-10-13T05:52:12.785Z,11.25
2022-10-13T05:54:47.233Z,11.23
2022-10-13T05:57:25.912Z,11.55
2022-10-13T06:00:01.816Z,11.45
2022-10-13T06:02:51.992Z,11.40
2022-10-13T06:05:20.981Z,10.80
2022-10-13T06:07:53.380Z,10.55
2022-10-13T06:10:20.051Z,9.52
2022-10-13T06:12:51.483Z,10.43
2022-10-13T06:15:17.940Z,9.65
2022-10-13T06:17:44.668Z,8.50
2022-10-13T06:20:11.383Z,9.60
2022-10-13T06:22:38.705Z,9.02
2022-10-13T06:25:07.063Z,7.88
2022-10-13T06:27:33.559Z,7.60
2022-10-13T06:29:59.974Z,10.10
2022-10-13T06:32:26.435Z,9.50
2022-10-13T06:34:53.833Z,10.45
2022-10-13T06:37:24.689Z,10.95
2022-10-13T06:39:53.587Z,10.33
2022-10-13T06:42:21.545Z,11.90
2022-10-13T06:45:04.893Z,11.40
2022-10-13T06:47:31.557Z,12.35
2022-10-13T06:49:57.972Z,11.30
2022-10-13T06:52:24.455Z,9.98
2022-10-13T06:54:52.932Z,10.48
2022-10-13T06:57:19.385Z,11.32
2022-10-13T06:59:45.839Z,10.50
2022-10-13T07:02:12.377Z,10.95
2022-10-13T07:04:38.810Z,11.00
2022-10-13T07:07:05.279Z,10.23
2022-10-13T07:09:31.828Z,9.52
2022-10-13T07:11:59.280Z,9.88
2022-10-13T07:14:26.069Z,9.90
2022-10-13T07:16:53.091Z,10.80
2022-10-13T07:19:19.632Z,9.82
2022-10-13T07:21:46.069Z,10.88
2022-10-13T07:24:12.694Z,10.23
2022-10-13T07:26:39.194Z,11.75
2022-10-13T07:29:05.980Z,9.90
2022-10-13T07:31:32.466Z,10.00
2022-10-13T07:34:02.183Z,9.88
2022-10-13T07:36:31.052Z,10.95
2022-10-13T07:39:01.023Z,10.35
2022-10-13T07:41:27.487Z,9.57
2022-10-13T07:43:56.481Z,11.48
2022-10-13T07:46:23.284Z,10.88
2022-10-13T07:48:49.830Z,9.50
2022-10-13T07:51:17.285Z,9.98
2022-10-13T07:53:48.634Z,10.00
2022-10-13T07:56:20.474Z,11.02
2022-10-13T07:58:50.057Z,10.65
2022-10-13T08:01:17.932Z,10.23
2022-10-13T08:03:48.966Z,9.57
2022-10-13T08:06:18.365Z,11.05
2022-10-13T08:08:44.897Z,10.48
2022-10-13T08:11:17.499Z,9.52
2022-10-13T08:13:52.328Z,9.93
2022-10-13T08:16:22.151Z,9.68
2022-10-13T08:19:17.069Z,10.52
2022-10-13T08:22:01.868Z,11.13
2022-10-13T08:24:29.410Z,11.68
2022-10-13T08:26:56.295Z,11.13
2022-10-13T08:29:28.547Z,10.43
2022-10-13T08:31:55.765Z,10.82
2022-10-13T08:34:23.873Z,10.05
2022-10-13T08:36:53.457Z,11.90
2022-10-13T08:39:22.294Z,12.63
2022-10-13T08:41:49.230Z,13.80
2022-10-13T08:47:53.377Z,10.27
2022-10-13T08:50:23.911Z,11.45
2022-10-13T08:53:05.768Z,12.45
2022-10-13T08:55:41.349Z,12.98
2022-10-13T08:58:34.952Z,12.52
2022-10-13T09:01:12.908Z,10.38
2022-10-13T09:04:08.094Z,10.85
2022-10-13T09:06:49.569Z,11.35
2022-10-13T09:09:16.846Z,11.93
2022-10-13T09:11:50.370Z,11.75
2022-10-13T09:14:24.471Z,11.75
2022-10-13T09:16:52.348Z,12.35
2022-10-13T09:19:36.817Z,12.75
2022-10-13T09:22:41.184Z,11.68
2022-10-13T09:25:07.587Z,9.95
2022-10-13T09:27:50.181Z,11.40
2022-10-13T09:30:33.798Z,11.30
2022-10-13T09:33:11.734Z,10.60
2022-10-13T09:35:44.277Z,11.38
2022-10-13T09:38:15.968Z,10.88
2022-10-13T09:43:35.040Z,11.27
2022-10-13T09:46:04.233Z,12.50
2022-10-13T09:48:36.684Z,11.45
2022-10-13T09:51:03.376Z,13.10
2022-10-13T09:53:39.966Z,12.02
2022-10-13T09:56:25.750Z,12.23
2022-10-13T09:59:05.983Z,13.10
2022-10-13T10:01:41.267Z,10.90
2022-10-13T10:04:20.484Z,12.90
2022-10-13T10:06:46.976Z,12.57
2022-10-13T10:09:38.686Z,12.40
2022-10-13T10:12:06.207Z,14.05
2022-10-13T10:14:39.247Z,12.45
2022-10-13T10:17:36.721Z,14.38
2022-10-13T10:20:49.438Z,13.90
2022-10-13T10:23:29.095Z,15.35
2022-10-13T10:26:10.530Z,15.15
2022-10-13T10:28:47.476Z,16.10
2022-10-13T10:31:37.273Z,16.52
2022-10-13T10:34:38.058Z,14.77
2022-10-13T10:37:25.538Z,15.40
2022-10-13T10:40:29.214Z,16.02
2022-10-13T10:43:15.846Z,15.25
2022-10-13T10:45:43.372Z,16.02
2022-10-13T10:48:34.752Z,15.48
2022-10-13T10:51:02.040Z,16.08
2022-10-13T10:53:47.131Z,18.42
2022-10-13T10:56:28.821Z,18.52
2022-10-13T10:59:29.595Z,19.65
2022-10-13T11:02:34.565Z,19.25
2022-10-13T11:07:33.267Z,14.65
2022-10-13T11:10:27.937Z,15.52
2022-10-13T11:12:55.183Z,15.65
2022-10-13T11:15:24.595Z,15.27
2022-10-13T11:17:52.207Z,14.57
2022-10-13T11:24:42.761Z,14.05
2022-10-13T11:27:13.876Z,15.57
2022-10-13T11:30:41.517Z,12.57
2022-10-13T11:33:33.340Z,15.00
2022-10-13T11:36:29.484Z,13.77
2022-10-13T11:39:28.881Z,11.82
2022-10-13T11:42:36.443Z,13.48
2022-10-13T11:45:17.411Z,13.02
2022-10-13T11:48:21.675Z,11.57
2022-10-13T11:51:12.579Z,13.13
2022-10-13T11:53:57.927Z,13.10
2022-10-13T11:56:51.562Z,11.13
2022-10-13T11:59:22.626Z,12.33
2022-10-13T12:01:54.568Z,11.73
2022-10-13T12:04:23.480Z,12.80
2022-10-13T12:07:17.104Z,11.70
2022-10-13T12:09:52.330Z,14.27
2022-10-13T12:12:23.417Z,12.85
2022-10-13T12:14:55.135Z,13.43
2022-10-13T12:17:26.172Z,13.57
2022-10-13T12:19:54.632Z,11.63
2022-10-13T12:22:21.117Z,12.07
2022-10-13T12:24:59.572Z,12.50
2022-10-13T12:27:27.896Z,11.63
2022-10-13T12:29:54.796Z,11.45
2022-10-13T12:32:24.097Z,12.60
2022-10-13T12:34:51.049Z,11.40
2022-10-13T12:37:33.364Z,12.20
2022-10-13T12:40:01.189Z,12.48
2022-10-13T12:42:31.264Z,11.88
2022-10-13T12:44:59.475Z,13.13
2022-10-13T12:47:53.519Z,13.30
2022-10-13T12:50:38.678Z,12.93
2022-10-13T12:53:08.252Z,14.18
2022-10-13T12:55:45.284Z,13.27
2022-10-13T12:58:21.512Z,13.07
2022-10-13T13:01:03.773Z,12.05
2022-10-13T13:03:36.292Z,12.85
2022-10-13T13:06:13.163Z,13.85
2022-10-13T13:08:42.126Z,11.75
2022-10-13T13:11:32.806Z,13.27
2022-10-13T13:14:37.175Z,12.80
2022-10-13T13:17:06.948Z,12.65
2022-10-13T13:19:36.437Z,13.82
2022-10-13T13:22:06.268Z,13.00
2022-10-13T13:24:40.251Z,13.75
2022-10-13T13:27:27.974Z,13.95
2022-10-13T13:29:55.863Z,13.70
2022-10-13T13:32:27.785Z,13.10
2022-10-13T13:34:55.689Z,14.88
2022-10-13T13:37:30.855Z,13.50
2022-10-13T13:39:58.556Z,12.45
2022-10-13T13:42:27.020Z,14.32
2022-10-13T13:44:56.215Z,14.00
2022-10-13T13:47:26.039Z,14.07
2022-10-13T13:49:54.805Z,13.77
2022-10-13T13:52:21.947Z,14.57
2022-10-13T13:54:50.768Z,14.65
2022-10-13T13:57:18.064Z,15.07
2022-10-13T13:59:44.962Z,14.20
2022-10-13T14:02:20.387Z,14.18
2022-10-13T14:04:47.277Z,13.30
2022-10-13T14:07:16.792Z,13.77
2022-10-13T14:10:16.814Z,14.52
2022-10-13T14:12:43.361Z,13.27
2022-10-13T14:15:10.334Z,14.43
2022-10-13T14:17:36.822Z,13.25
2022-10-13T14:20:03.893Z,13.27
2022-10-13T14:22:33.124Z,14.93
2022-10-13T14:24:59.590Z,12.38
2022-10-13T14:27:26.103Z,13.77
2022-10-13T14:29:54.750Z,14.90
2022-10-13T14:32:24.372Z,12.95
2022-10-13T14:34:50.864Z,14.60
2022-10-13T14:37:20.883Z,13.73
2022-10-13T14:39:49.524Z,14.63
2022-10-13T14:42:15.959Z,14.10
2022-10-13T14:44:42.395Z,13.05
2022-10-13T14:47:08.945Z,12.68
2022-10-13T14:49:37.929Z,15.05
2022-10-13T14:52:04.736Z,14.38
2022-10-13T14:54:31.521Z,12.35
2022-10-13T14:57:00.842Z,12.65
2022-10-13T14:59:27.575Z,13.25
2022-10-13T15:01:53.975Z,13.02
2022-10-13T15:04:20.455Z,14.27
2022-10-13T15:06:46.919Z,12.57
2022-10-13T15:09:13.439Z,12.35
2022-10-13T15:11:39.920Z,12.52
2022-10-13T15:14:07.409Z,12.77
2022-10-13T15:16:34.019Z,11.48
2022-10-13T15:19:00.546Z,12.13
2022-10-13T15:21:27.140Z,11.60
2022-10-13T15:23:53.629Z,12.00
2022-10-13T15:26:20.738Z,10.85
2022-10-13T15:28:50.018Z,11.52
2022-10-13T15:31:18.363Z,12.43
2022-10-13T15:33:46.995Z,10.95
2022-10-13T15:36:14.319Z,10.90
2022-10-13T15:38:40.925Z,13.18
2022-10-13T15:41:07.899Z,11.63
2022-10-13T15:43:34.577Z,11.60
2022-10-13T15:46:12.354Z,12.85
2022-10-13T15:48:43.540Z,11.88
2022-10-13T15:51:19.542Z,10.80
2022-10-13T15:53:47.670Z,11.48
2022-10-13T15:56:17.780Z,11.80
2022-10-13T15:58:45.368Z,11.63
2022-10-13T16:01:13.822Z,12.25
2022-10-13T16:03:41.161Z,11.82
2022-10-13T16:06:10.001Z,12.45
2022-10-13T16:08:41.378Z,12.70
2022-10-13T16:11:09.417Z,11.80
2022-10-13T16:13:36.365Z,14.70
2022-10-13T16:16:02.984Z,13.82
2022-10-13T16:18:30.895Z,12.70
2022-10-13T16:20:57.465Z,13.70
2022-10-13T16:23:28.703Z,12.80
2022-10-13T16:25:55.158Z,13.43
2022-10-13T16:28:21.825Z,13.00
2022-10-13T16:30:48.380Z,13.05
2022-10-13T16:33:15.010Z,12.32
2022-10-13T16:35:41.687Z,13.27
2022-10-13T16:38:08.903Z,14.52
2022-10-13T16:40:38.988Z,13.23
2022-10-13T16:43:06.554Z,14.65
2022-10-13T16:48:32.175Z,14.93
2022-10-13T16:50:59.390Z,15.30
2022-10-13T16:57:03.194Z,15.55
2022-10-13T16:59:29.734Z,14.77
2022-10-13T17:01:59.430Z,16.38
2022-10-13T17:04:31.674Z,16.73
2022-10-13T17:06:58.308Z,16.35
2022-10-13T17:09:25.450Z,17.30
2022-10-13T17:11:57.837Z,17.23
2022-10-13T17:14:24.850Z,17.75
2022-10-13T17:16:56.744Z,17.70
2022-10-13T17:19:24.207Z,18.77
2022-10-13T17:21:50.634Z,18.63
2022-10-13T17:24:17.269Z,18.63
2022-10-13T17:26:49.380Z,19.17
2022-10-13T17:29:46.479Z,18.27
2022-10-13T17:32:13.472Z,17.42
2022-10-13T17:34:39.986Z,18.88
2022-10-13T17:37:07.163Z,17.95
2022-10-13T17:39:33.812Z,17.98
2022-10-13T17:42:00.243Z,18.27
2022-10-13T17:44:26.752Z,20.17
2022-10-13T17:46:53.218Z,18.67
2022-10-13T17:49:19.671Z,17.27
2022-10-13T17:51:49.965Z,19.70
2022-10-13T17:54:16.921Z,19.65
2022-10-13T17:56:45.153Z,18.70
2022-10-13T17:59:17.198Z,18.95
2022-10-13T18:01:44.852Z,20.50
2022-10-13T18:04:14.246Z,22.23
2022-10-13T18:06:43.801Z,22.27
2022-10-13T18:09:16.678Z,22.38
2022-10-13T18:11:49.772Z,21.52
2022-10-13T18:14:17.960Z,21.75
2022-10-13T18:16:44.879Z,21.02
2022-10-13T18:19:12.466Z,22.73
2022-10-13T18:21:38.880Z,23.17
2022-10-13T18:24:05.727Z,24.40
2022-10-13T18:26:35.673Z,23.80
2022-10-13T18:29:03.743Z,24.20
2022-10-13T18:31:32.689Z,23.58
2022-10-13T18:34:04.814Z,23.20
2022-10-13T18:36:34.558Z,23.25
2022-10-13T18:39:08.433Z,24.25
2022-10-13T18:41:37.269Z,24.63
2022-10-13T18:44:05.083Z,25.35
2022-10-13T18:46:36.239Z,24.45
2022-10-13T18:49:04.317Z,25.02
2022-10-13T18:51:35.632Z,22.50
2022-10-13T18:54:03.409Z,24.10
2022-10-13T18:56:31.272Z,24.05
2022-10-13T18:59:00.359Z,24.92
2022-10-13T19:01:29.516Z,24.55
2022-10-13T19:03:56.451Z,25.63
2022-10-13T19:06:27.031Z,27.45
2022-10-13T19:08:58.494Z,28.35
2022-10-13T19:11:25.094Z,27.25
2022-10-13T19:13:52.428Z,26.48
2022-10-13T19:16:22.225Z,24.17
2022-10-13T19:18:49.206Z,25.83
2022-10-13T19:21:16.950Z,25.38
2022-10-13T19:23:43.653Z,24.42
2022-10-13T19:26:25.495Z,26.60
2022-10-13T19:29:07.964Z,24.08
2022-10-13T19:31:35.818Z,25.38
2022-10-13T19:34:07.373Z,22.90
2022-10-13T19:36:37.709Z,25.08
2022-10-13T19:39:07.022Z,25.05
2022-10-13T19:41:34.177Z,23.60
2022-10-13T19:44:02.151Z,23.23
2022-10-13T19:46:38.841Z,23.70
2022-10-13T19:49:05.358Z,23.63
2022-10-13T19:51:33.369Z,23.70
2022-10-13T19:54:00.398Z,22.85
2022-10-13T19:56:31.314Z,22.50
2022-10-13T19:58:58.424Z,22.95
2022-10-13T20:01:24.948Z,21.25
2022-10-13T20:03:51.503Z,20.67
2022-10-13T20:06:18.818Z,22.42
2022-10-13T20:08:45.755Z,20.83
2022-10-13T20:11:24.497Z,21.00
2022-10-13T20:13:52.087Z,22.13
2022-10-13T20:16:21.453Z,22.13
2022-10-13T20:18:59.201Z,20.98
2022-10-13T20:21:27.386Z,20.67
2022-10-13T20:23:54.205Z,21.23
2022-10-13T20:26:21.039Z,20.00
2022-10-13T20:28:48.998Z,21.92
2022-10-13T20:31:17.643Z,19.10
2022-10-13T20:33:44.716Z,19.60
2022-10-13T20:36:13.488Z,19.27
2022-10-13T20:38:40.323Z,19.92
2022-10-13T20:41:15.810Z,18.98
2022-10-13T20:43:42.255Z,20.30
2022-10-13T20:46:09.229Z,19.20
2022-10-13T20:49:05.174Z,17.70
2022-10-13T20:51:24.670Z,18.00
2022-10-13T20:53:51.944Z,17.77
2022-10-13T20:56:23.813Z,17.38
2022-10-13T20:58:51.222Z,16.50
2022-10-13T21:01:20.830Z,17.33
2022-10-13T21:03:54.206Z,14.90
2022-10-13T21:06:22.244Z,15.52
2022-10-13T21:08:49.110Z,16.45
2022-10-13T21:11:17.733Z,16.58
2022-10-13T21:13:45.084Z,15.40
2022-10-13T21:16:13.915Z,15.00
2022-10-13T21:18:40.824Z,14.60
2022-10-13T21:21:10.342Z,13.57
2022-10-13T21:23:37.602Z,15.32
2022-10-13T21:26:06.431Z,13.65
2022-10-13T21:28:33.988Z,13.75
2022-10-13T21:31:06.037Z,12.45
2022-10-13T21:33:35.819Z,14.18
2022-10-13T21:36:25.797Z,13.18
2022-10-13T21:38:55.717Z,12.00
2022-10-13T21:41:23.111Z,13.57
2022-10-13T21:43:50.987Z,13.00
2022-10-13T21:46:23.620Z,13.00
2022-10-13T21:48:57.828Z,12.85
2022-10-13T21:51:33.132Z,12.68
2022-10-13T21:54:03.685Z,12.48
2022-10-13T21:56:31.285Z,13.00
2022-10-13T21:58:58.996Z,13.30
